createdAt,value
2022-11-27T00:01:54.565Z,7.90
2022-11-27T00:06:03.433Z,7.67
2022-11-27T00:10:09.190Z,8.20
2022-11-27T00:14:13.293Z,7.83
2022-11-27T00:18:15.295Z,8.37
2022-11-27T00:22:17.190Z,7.97
2022-11-27T00:26:19.501Z,8.40
2022-11-27T00:30:21.505Z,7.57
2022-11-27T00:34:23.475Z,7.00
2022-11-27T00:38:25.435Z,7.20
2022-11-27T00:42:27.601Z,7.37
2022-11-27T00:46:30.960Z,7.20
2022-11-27T00:50:34.073Z,6.87
2022-11-27T00:54:36.042Z,7.53
2022-11-27T00:58:38.080Z,7.13
2022-11-27T01:02:40.731Z,7.37
2022-11-27T01:06:49.746Z,6.20
2022-11-27T01:10:58.963Z,5.97
2022-11-27T01:15:10.644Z,6.00
2022-11-27T01:19:13.062Z,6.30
2022-11-27T01:23:15.006Z,6.47
2022-11-27T01:27:16.860Z,5.77
2022-11-27T01:31:21.815Z,6.23
2022-11-27T01:35:23.863Z,5.37
2022-11-27T01:39:25.798Z,4.70
2022-11-27T01:43:43.677Z,5.10
2022-11-27T01:47:57.633Z,4.70
2022-11-27T01:52:21.285Z,5.20
2022-11-27T01:56:23.279Z,5.13
2022-11-27T02:00:25.383Z,5.03
2022-11-27T02:04:27.402Z,5.47
2022-11-27T02:08:35.059Z,6.20
2022-11-27T02:13:26.793Z,5.80
2022-11-27T02:17:40.792Z,4.73
2022-11-27T02:21:57.934Z,5.47
2022-11-27T02:26:27.530Z,4.90
2022-11-27T02:30:31.177Z,5.10
2022-11-27T02:34:38.014Z,5.63
2022-11-27T02:38:44.490Z,5.10
2022-11-27T02:42:56.163Z,5.20
2022-11-27T02:46:58.142Z,4.93
2022-11-27T02:51:00.368Z,5.43
2022-11-27T02:55:05.540Z,5.10
2022-11-27T02:59:10.466Z,5.00
2022-11-27T03:03:13.476Z,5.70
2022-11-27T03:07:31.566Z,5.47
2022-11-27T03:11:40.454Z,5.33
2022-11-27T03:16:00.906Z,5.30
2022-11-27T03:20:22.480Z,6.33
2022-11-27T03:24:24.817Z,5.53
2022-11-27T03:28:27.006Z,5.50
2022-11-27T03:32:29.167Z,5.33
2022-11-27T03:36:31.098Z,4.93
2022-11-27T03:40:50.319Z,4.97
2022-11-27T03:45:22.861Z,5.40
2022-11-27T03:50:04.651Z,4.97
2022-11-27T03:54:50.193Z,6.23
2022-11-27T03:59:20.767Z,6.10
2022-11-27T04:03:25.663Z,5.73
2022-11-27T04:07:27.574Z,5.97
2022-11-27T04:11:29.539Z,6.10
2022-11-27T04:15:31.420Z,6.17
2022-11-27T04:19:33.301Z,5.63
2022-11-27T04:23:35.212Z,5.77
2022-11-27T04:27:37.095Z,5.17
2022-11-27T04:31:39.140Z,4.80
2022-11-27T04:35:41.111Z,5.50
2022-11-27T04:39:42.887Z,5.20
2022-11-27T04:43:44.771Z,5.63
2022-11-27T04:47:46.684Z,5.40
2022-11-27T04:51:48.606Z,5.97
2022-11-27T04:55:52.505Z,5.37
2022-11-27T04:59:54.656Z,5.30
2022-11-27T05:03:56.464Z,5.90
2022-11-27T05:07:58.403Z,5.60
2022-11-27T05:12:00.265Z,6.00
2022-11-27T05:16:02.337Z,5.30
2022-11-27T05:20:05.027Z,5.97
2022-11-27T05:24:07.157Z,5.37
2022-11-27T05:28:09.039Z,5.50
2022-11-27T05:32:11.006Z,6.10
2022-11-27T05:36:13.047Z,5.70
2022-11-27T05:40:19.520Z,5.63
2022-11-27T05:44:22.094Z,6.10
2022-11-27T05:48:24.482Z,6.10
2022-11-27T05:52:27.203Z,6.50
2022-11-27T05:56:29.504Z,5.43
2022-11-27T06:00:31.701Z,6.63
2022-11-27T06:04:34.904Z,6.57
2022-11-27T06:08:37.692Z,5.93
2022-11-27T06:12:39.712Z,6.10
2022-11-27T06:16:41.720Z,5.70
2022-11-27T06:20:46.862Z,7.03
2022-11-27T06:24:52.090Z,6.57
2022-11-27T06:28:54.893Z,5.93
2022-11-27T06:32:56.919Z,6.80
2022-11-27T06:36:59.432Z,6.07
2022-11-27T06:41:19.142Z,6.17
2022-11-27T06:45:21.300Z,5.63
2022-11-27T06:49:27.167Z,6.10
2022-11-27T06:53:33.529Z,5.20
2022-11-27T06:57:35.330Z,5.07
2022-11-27T07:01:37.211Z,4.93
2022-11-27T07:06:15.298Z,5.60
2022-11-27T07:10:17.404Z,4.70
2022-11-27T07:14:19.251Z,5.00
2022-11-27T07:18:21.166Z,4.70
2022-11-27T07:22:29.108Z,4.93
2022-11-27T09:42:13.405Z,7.33
2022-11-27T09:46:28.825Z,6.97
2022-11-27T09:50:41.358Z,6.43
2022-11-27T09:55:10.122Z,6.60
2022-11-27T09:59:21.978Z,9.17
2022-11-27T10:03:50.160Z,9.17
2022-11-27T10:08:12.499Z,9.53
2022-11-27T10:24:44.715Z,9.00
2022-11-27T10:35:07.558Z,8.67
2022-11-27T10:45:50.190Z,8.37
2022-11-27T11:01:05.435Z,8.93
2022-11-27T11:16:39.240Z,8.90
2022-11-27T11:22:09.173Z,7.97
2022-11-27T11:27:26.224Z,6.73
2022-11-27T11:32:07.574Z,7.20
2022-11-27T11:46:51.713Z,5.23
2022-11-27T11:52:31.003Z,6.27
2022-11-27T11:57:11.099Z,5.90
2022-11-27T12:02:22.675Z,5.33
2022-11-27T12:07:30.136Z,5.27
2022-11-27T12:11:47.836Z,5.57
2022-11-27T12:16:29.346Z,5.30
2022-11-27T12:21:12.515Z,5.27
2022-11-27T12:25:58.474Z,5.23
2022-11-27T12:48:49.897Z,4.60
2022-11-27T13:38:18.565Z,4.93
2022-11-27T13:42:22.580Z,4.77
2022-11-27T13:46:27.571Z,4.63
2022-11-27T13:50:31.860Z,5.63
2022-11-27T13:54:36.789Z,4.67
2022-11-27T13:58:40.786Z,4.43
2022-11-27T14:02:50.941Z,4.40
2022-11-27T14:07:07.046Z,4.17
2022-11-27T14:11:14.002Z,4.53
2022-11-27T14:15:18.932Z,4.13
2022-11-27T14:19:35.822Z,4.77
2022-11-27T14:23:49.956Z,4.47
2022-11-27T14:28:12.695Z,4.50
2022-11-27T14:32:21.362Z,4.23
2022-11-27T14:36:31.899Z,4.73
2022-11-27T14:40:33.787Z,4.67
2022-11-27T14:44:35.701Z,3.93
2022-11-27T14:48:57.432Z,4.63
2022-11-27T14:52:59.370Z,4.17
2022-11-27T14:57:01.443Z,4.00
2022-11-27T15:01:09.349Z,3.90
2022-11-27T15:05:25.355Z,4.70
2022-11-27T15:09:43.434Z,4.47
2022-11-27T15:13:51.511Z,5.13
2022-11-27T15:17:58.748Z,4.83
2022-11-27T15:22:00.672Z,5.70
2022-11-27T15:26:02.575Z,5.23
2022-11-27T15:30:12.867Z,5.77
2022-11-27T15:34:17.456Z,5.07
2022-11-27T15:38:19.359Z,5.23
2022-11-27T15:42:21.499Z,4.43
2022-11-27T15:46:32.714Z,4.20
2022-11-27T15:50:39.890Z,4.70
2022-11-27T15:54:42.098Z,5.40
2022-11-27T15:58:44.149Z,4.53
2022-11-27T16:02:46.213Z,5.13
2022-11-27T16:06:48.133Z,5.93
2022-11-27T16:10:50.045Z,5.97
2022-11-27T16:15:02.930Z,6.00
2022-11-27T16:19:06.423Z,6.40
2022-11-27T16:23:08.426Z,6.70
2022-11-27T16:27:18.389Z,6.87
2022-11-27T16:31:20.610Z,6.30
2022-11-27T16:35:32.056Z,6.77
2022-11-27T16:39:38.467Z,6.90
2022-11-27T16:50:47.455Z,6.87
2022-11-27T16:54:52.935Z,7.30
2022-11-27T17:00:15.943Z,7.30
2022-11-27T17:08:48.525Z,7.53
2022-11-27T19:16:56.585Z,9.40
2022-11-27T19:21:01.853Z,9.53
2022-11-27T19:25:09.066Z,10.50
2022-11-27T19:29:18.433Z,10.33
2022-11-27T19:46:20.569Z,10.80
2022-11-27T20:12:22.972Z,13.60
2022-11-27T20:16:25.369Z,14.27
2022-11-27T20:20:33.933Z,11.87
2022-11-27T20:24:58.128Z,12.17
2022-11-27T20:29:01.313Z,12.43
2022-11-27T20:33:07.982Z,12.57
2022-11-27T20:37:19.406Z,12.40
2022-11-27T20:41:27.178Z,12.53
2022-11-27T20:45:32.186Z,11.63
2022-11-27T20:49:34.081Z,11.93
2022-11-27T20:53:36.572Z,11.97
2022-11-27T20:57:38.648Z,11.37
2022-11-27T21:01:44.381Z,12.73
2022-11-27T21:06:31.354Z,12.40
2022-11-27T21:10:58.068Z,11.97
2022-11-27T21:15:20.830Z,10.83
2022-11-27T21:19:53.766Z,10.70
2022-11-27T21:24:07.027Z,10.90
2022-11-27T21:28:36.844Z,11.90
2022-11-27T21:32:51.203Z,12.67
2022-11-27T21:36:59.419Z,11.47
2022-11-27T21:41:01.304Z,12.10
2022-11-27T21:45:05.715Z,11.70
2022-11-27T21:49:23.028Z,11.60
2022-11-27T21:53:25.027Z,10.87
2022-11-27T21:57:26.897Z,11.50
2022-11-27T22:01:28.827Z,11.30
2022-11-27T22:05:30.842Z,11.33
2022-11-27T22:09:33.641Z,11.70
2022-11-27T22:13:36.201Z,11.63
2022-11-27T22:17:38.505Z,11.27
2022-11-27T22:21:40.380Z,10.80
2022-11-27T22:25:42.183Z,11.57
2022-11-27T22:29:44.046Z,11.20
2022-11-27T22:33:46.345Z,11.23
2022-11-27T22:37:48.389Z,9.83
2022-11-27T22:41:50.372Z,10.73
2022-11-27T22:45:52.242Z,9.80
2022-11-27T22:49:54.217Z,10.83
2022-11-27T22:53:56.102Z,10.60
2022-11-27T22:57:58.067Z,10.30
2022-11-27T23:01:59.995Z,9.63
2022-11-27T23:06:01.957Z,10.00
2022-11-27T23:10:04.251Z,9.87
2022-11-27T23:14:06.232Z,10.37
2022-11-27T23:18:08.367Z,10.13
2022-11-27T23:22:10.242Z,9.17
2022-11-27T23:26:20.437Z,10.13
2022-11-27T23:30:22.296Z,9.90
2022-11-27T23:34:24.338Z,9.47
2022-11-27T23:38:26.250Z,10.30
2022-11-27T23:42:28.245Z,9.43
2022-11-27T23:46:30.576Z,8.73
2022-11-27T23:50:32.407Z,10.20
2022-11-27T23:54:34.326Z,9.37
2022-11-27T23:58:36.354Z,10.00
